Vistas del Mar, Puerto Rico
Current Conditions -  °F | °C
As of 9:20 PM on Friday 28 Nov 2014 (Local Time) from TJNR Reporting Station
Overcast Overcast  
Wind Chill: 76°   Ceiling: 5500
Heat Index: 76°   Visibility: 10mi
Dew Point: 72°   Wind: 3mph
Humidity: 87%   Direction: 340°NNW
Pressure: 30"   Gusts: NA
Location:  18.3304°N, 65.6573°W
Report Text: TJNR 290120Z AUTO 34003KT 10SM FEW024 SCT029 OVC055 24/22 A3000 RMK AO2 T02440222 $
Loading
Personal Weather Stations






























Interactive Weather Map New forecast layout! Learn more

10-Day Weather Forecast

Advertisements
Track Severe Weather on mobile